San Pablo, Colorado
Current Conditions -  °F | °C
As of 9:30 AM on Thursday 23 Oct 2014 (Local Time) from KVTP Reporting Station
Clear Clear  
Wind Chill: 33°   Ceiling: Unl
Heat Index: 41°   Visibility: 10mi
Dew Point: 30°   Wind: 14mph
Humidity: 65%   Direction: 190°S
Pressure: 30.43"   Gusts: 20mph
Location:  37.15°N, 105.4°W
Report Text: KVTP 231530Z AUTO 19012G17KT 170V280 10SM CLR 05/M01 A3043 RMK AO2
Loading
Personal Weather Stations






























Interactive Weather Map
Tropical Storm Tracking
New forecast layout! Learn more

10-Day Weather Forecast

Advertisements
Track Severe Weather on mobile